Hillsborough, Canada
Current Conditions -  °F | °C
As of 9:00 PM on Tuesday 21 Oct 2014 (Local Time) from CYQM Reporting Station
Overcast Overcast  
Wind Chill: 40°   Ceiling: 14000
Heat Index: 43°   Visibility: 15mi
Dew Point: 36°   Wind: 5mph
Humidity: 76%   Direction: 80°E
Pressure: 30.22"   Gusts: NA
Location:  45.92°N, 64.65°W
Report Text: CYQM 220000Z 08004KT 15SM SCT061 OVC140 06/02 A3022 RMK SC3AC5 SLP236
Loading
Personal Weather Stations






























Interactive Weather Map
Tropical Storm Tracking
New forecast layout! Learn more

10-Day Weather Forecast

Advertisements
Track Severe Weather on mobile